Time;durP1;ratioP1;P1;durP2;ratioP2;P2;SDS_P1;SDS_P2;PMS_P1;PMS_P2;Temp;Humidity;BMP_temperature;BMP_pressure;BME280_temperature;BME280_humidity;BME280_pressure;Samples;Min_cycle;Max_cycle;Signal;HPM_P1;HPM_P2
2021/11/04 00:00:25;;;;;;;;;14.00;13.25;;;;;-147.17;100.00;50033.00;5045469;28;51054;-66
2021/11/04 00:02:52;;;;;;;;;19.25;16.50;;;;;-147.17;100.00;50019.22;5070579;28;51072;-63
2021/11/04 00:05:18;;;;;;;;;17.25;16.75;;;;;-147.17;100.00;50027.09;5071670;28;51144;-68
2021/11/04 00:07:47;;;;;;;;;15.50;14.50;;;;;-147.17;100.00;50013.31;5053037;28;51444;-65
2021/11/04 00:10:13;;;;;;;;;19.00;17.50;;;;;-147.17;100.00;50007.41;5058329;28;50981;-65
2021/11/04 00:12:39;;;;;;;;;17.00;16.00;;;;;-147.17;100.00;50023.16;5065525;28;51789;-66
2021/11/04 00:15:05;;;;;;;;;16.50;16.00;;;;;-147.17;100.00;50038.91;5069666;28;51515;-69
2021/11/04 00:17:31;;;;;;;;;15.25;14.75;;;;;-147.17;100.00;50005.44;5066901;28;51278;-67
2021/11/04 00:19:56;;;;;;;;;19.75;18.75;;;;;-147.17;100.00;49993.63;5057319;28;51020;-65
2021/11/04 00:22:22;;;;;;;;;19.50;19.25;;;;;-147.17;100.00;49981.81;5062064;28;51265;-65
2021/11/04 00:24:47;;;;;;;;;19.00;17.75;;;;;-147.17;100.00;50009.38;5063838;28;52079;-67
2021/11/04 00:27:13;;;;;;;;;17.50;16.00;;;;;-147.17;100.00;49981.81;5068290;28;51120;-66
2021/11/04 00:29:38;;;;;;;;;20.25;19.00;;;;;-147.17;100.00;49981.81;5046156;28;51133;-66
2021/11/04 00:32:04;;;;;;;;;19.75;18.75;;;;;-147.17;100.00;49977.88;5058884;28;50993;-66
2021/11/04 00:34:30;;;;;;;;;15.75;15.00;;;;;-147.17;100.00;50007.41;5066076;28;51398;-66
2021/11/04 00:36:56;;;;;;;;;16.25;15.50;;;;;-147.17;100.00;50005.44;5069660;28;51202;-66
2021/11/04 00:39:21;;;;;;;;;20.00;16.25;;;;;-147.17;100.00;50005.44;5071332;28;51035;-66
2021/11/04 00:41:47;;;;;;;;;16.75;15.75;;;;;-147.17;100.00;49995.59;5058504;28;51557;-65
2021/11/04 00:44:14;;;;;;;;;19.50;17.25;;;;;-147.17;100.00;50025.13;5059676;27;52072;-65
2021/11/04 00:46:40;;;;;;;;;16.50;15.00;;;;;-147.17;100.00;49989.69;5038092;28;51020;-65
2021/11/04 00:49:06;;;;;;;;;15.00;15.00;;;;;-147.17;100.00;49999.53;5060536;28;50983;-65
2021/11/04 00:51:35;;;;;;;;;19.50;18.75;;;;;-147.17;100.00;50013.31;5051084;28;51198;-66
2021/11/04 00:54:01;;;;;;;;;18.00;18.00;;;;;-147.17;100.00;50009.38;5065885;28;51863;-65
2021/11/04 00:56:26;;;;;;;;;19.00;18.25;;;;;-147.17;100.00;49987.72;5034871;28;51111;-65
2021/11/04 00:58:52;;;;;;;;;17.00;16.25;;;;;-147.17;100.00;49993.63;5043747;28;51582;-63
2021/11/04 01:01:22;;;;;;;;;17.75;17.25;;;;;-147.17;100.00;49971.97;5069105;28;51214;-64
2021/11/04 01:03:50;;;;;;;;;19.00;17.00;;;;;-147.17;100.00;49995.59;5034847;28;51110;-65
2021/11/04 01:06:17;;;;;;;;;13.75;13.00;;;;;-147.17;100.00;50003.47;5055640;27;51159;-66
2021/11/04 01:08:43;;;;;;;;;16.00;15.00;;;;;-147.17;100.00;50005.44;5041031;28;51203;-66
2021/11/04 01:11:10;;;;;;;;;15.25;14.50;;;;;-147.17;100.00;49981.81;5051154;28;51955;-66
2021/11/04 01:13:37;;;;;;;;;21.25;16.00;;;;;-147.17;100.00;50021.19;5063016;28;53312;-67
2021/11/04 01:16:03;;;;;;;;;16.50;15.25;;;;;-147.17;100.00;50001.50;5053145;28;51222;-68
2021/11/04 01:18:30;;;;;;;;;16.75;16.00;;;;;-147.17;100.00;49970.00;5070395;28;51002;-66
2021/11/04 01:20:56;;;;;;;;;16.00;15.00;;;;;-147.17;100.00;50007.41;5048154;28;51178;-66
2021/11/04 01:23:22;;;;;;;;;13.25;13.25;;;;;-147.17;100.00;49999.53;5052280;28;52166;-67
2021/11/04 01:25:47;;;;;;;;;18.00;18.00;;;;;-147.17;100.00;50013.31;5073013;28;51018;-66
2021/11/04 01:28:15;;;;;;;;;21.25;19.25;;;;;-147.17;100.00;50013.31;5044935;28;51247;-63
2021/11/04 01:30:40;;;;;;;;;15.00;15.00;;;;;-147.17;100.00;49999.53;5069487;28;51948;-61
2021/11/04 01:33:06;;;;;;;;;20.75;19.75;;;;;-147.17;100.00;49989.69;5070519;28;52367;-61
2021/11/04 01:35:32;;;;;;;;;23.00;22.25;;;;;-147.17;100.00;49981.81;5072931;28;51071;-62
2021/11/04 01:38:02;;;;;;;;;17.00;15.75;;;;;-147.17;100.00;49997.56;5058159;28;51077;-62
2021/11/04 01:40:27;;;;;;;;;16.00;16.00;;;;;-147.17;100.00;50007.41;5053937;28;51332;-62
2021/11/04 01:42:53;;;;;;;;;16.00;16.00;;;;;-147.17;100.00;50009.38;5051532;28;52542;-62
2021/11/04 01:45:19;;;;;;;;;15.75;15.00;;;;;-147.17;100.00;50025.13;5069972;28;51136;-62
2021/11/04 01:47:46;;;;;;;;;17.25;16.00;;;;;-147.17;100.00;50011.34;5073116;28;51565;-62
2021/11/04 01:50:20;;;;;;;;;16.75;15.25;;;;;-147.17;100.00;50019.22;5075694;28;51270;-62
2021/11/04 01:52:47;;;;;;;;;15.75;15.50;;;;;-147.17;100.00;50017.25;5074347;28;51969;-61
2021/11/04 01:55:19;;;;;;;;;19.50;15.75;;;;;-147.17;100.00;49981.81;5073284;28;50995;-62
2021/11/04 01:57:45;;;;;;;;;15.00;15.00;;;;;-147.17;100.00;50019.22;5069542;28;51041;-62
2021/11/04 02:00:14;;;;;;;;;14.75;14.75;;;;;-147.17;100.00;49970.00;5067687;28;51377;-62
2021/11/04 02:03:04;;;;;;;;;15.25;14.75;;;;;-147.17;100.00;50009.38;5064062;28;52136;-62
2021/11/04 02:05:48;;;;;;;;;17.50;14.75;;;;;-147.17;100.00;50011.34;5029836;28;50962;-62
2021/11/04 02:08:30;;;;;;;;;17.75;16.00;;;;;-147.17;100.00;49973.94;5058614;28;51324;-61
2021/11/04 02:11:09;;;;;;;;;19.50;15.50;;;;;-147.17;100.00;49987.72;5074644;28;51069;-60
2021/11/04 02:13:53;;;;;;;;;16.00;13.75;;;;;-147.17;100.00;50027.09;5070607;28;52074;-62
2021/11/04 02:16:22;;;;;;;;;15.00;14.00;;;;;-147.17;100.00;49971.97;5074092;28;51115;-61
2021/11/04 02:18:49;;;;;;;;;18.00;16.75;;;;;-147.17;100.00;49979.84;5074121;28;51463;-63
2021/11/04 02:21:36;;;;;;;;;4.00;4.00;;;;;-147.17;100.00;49973.94;5075323;28;51059;-62
2021/11/04 02:24:21;;;;;;;;;19.50;16.75;;;;;-147.17;100.00;50017.25;5074294;28;51100;-62
2021/11/04 02:26:49;;;;;;;;;20.50;19.50;;;;;-147.17;100.00;50029.06;5074749;28;51157;-62
2021/11/04 02:29:16;;;;;;;;;14.75;14.25;;;;;-147.17;100.00;49991.66;5073046;28;51232;-62
2021/11/04 02:31:42;;;;;;;;;17.50;16.25;;;;;-147.17;100.00;49999.53;5073893;28;51264;-61
2021/11/04 02:34:08;;;;;;;;;19.00;19.00;;;;;-147.17;100.00;49993.63;5074601;28;52012;-62
2021/11/04 02:36:34;;;;;;;;;19.25;17.50;;;;;-147.17;100.00;50003.47;5074415;28;50989;-61
2021/11/04 02:39:00;;;;;;;;;18.25;17.50;;;;;-147.17;100.00;50025.13;5069701;28;51098;-62
2021/11/04 02:41:29;;;;;;;;;18.50;18.25;;;;;-147.17;100.00;49999.53;5061632;28;51181;-62
2021/11/04 02:43:56;;;;;;;;;18.75;16.25;;;;;-147.17;100.00;50029.06;5074668;28;52001;-65
2021/11/04 02:46:22;;;;;;;;;19.25;17.75;;;;;-147.17;100.00;49989.69;5073515;28;51259;-61
2021/11/04 02:48:47;;;;;;;;;20.25;19.00;;;;;-147.17;100.00;50003.47;5070680;28;51158;-62
2021/11/04 02:51:13;;;;;;;;;21.00;18.25;;;;;-147.17;100.00;50007.41;5066948;28;51027;-62
2021/11/04 02:53:45;;;;;;;;;15.75;15.75;;;;;-147.17;100.00;50015.28;5074363;28;52142;-61
2021/11/04 02:56:10;;;;;;;;;22.25;16.50;;;;;-147.17;100.00;49997.56;5067062;28;51424;-61
2021/11/04 02:58:36;;;;;;;;;14.75;13.50;;;;;-147.17;100.00;49973.94;5061857;28;51134;-62
2021/11/04 03:01:05;;;;;;;;;24.25;22.50;;;;;-147.17;100.00;50009.38;5073427;28;51396;-63
2021/11/04 03:03:30;;;;;;;;;18.25;18.25;;;;;-147.17;100.00;50021.19;5074807;28;51876;-62
2021/11/04 03:05:57;;;;;;;;;17.00;15.25;;;;;-147.17;100.00;49987.72;5073181;28;51184;-61
2021/11/04 03:08:25;;;;;;;;;19.50;18.75;;;;;-147.17;100.00;49983.78;5064977;27;51204;-62
2021/11/04 03:10:54;;;;;;;;;18.75;18.25;;;;;-147.17;100.00;49991.66;5071100;28;51149;-60
2021/11/04 03:13:20;;;;;;;;;16.75;16.50;;;;;-147.17;100.00;50021.19;5073288;28;51927;-62
2021/11/04 03:15:49;;;;;;;;;22.50;21.00;;;;;-147.17;100.00;50027.09;5073326;28;50963;-62
2021/11/04 03:18:15;;;;;;;;;24.50;20.50;;;;;-147.17;100.00;50027.09;5073868;28;50998;-62
2021/11/04 03:20:41;;;;;;;;;16.50;16.25;;;;;-147.17;100.00;50023.16;5074756;28;50931;-62
2021/11/04 03:23:08;;;;;;;;;22.25;20.75;;;;;-147.17;100.00;50011.34;5073879;28;51277;-62
2021/11/04 03:25:34;;;;;;;;;21.25;21.00;;;;;-147.17;100.00;49989.69;5073348;28;51136;-62
2021/11/04 03:28:02;;;;;;;;;23.00;19.25;;;;;-147.17;100.00;50019.22;5072794;28;51215;-62
2021/11/04 03:30:32;;;;;;;;;20.00;18.00;;;;;-147.17;100.00;50009.38;5073141;28;51016;-62
2021/11/04 03:32:59;;;;;;;;;20.00;19.00;;;;;-147.17;100.00;50005.44;5073538;28;51985;-62
2021/11/04 03:35:27;;;;;;;;;26.75;23.00;;;;;-147.17;100.00;49989.69;5054551;28;51160;-62
2021/11/04 03:37:54;;;;;;;;;20.50;18.50;;;;;-147.17;100.00;50013.31;5071322;28;51223;-62
2021/11/04 03:40:21;;;;;;;;;23.25;20.00;;;;;-147.17;100.00;50042.84;5039313;28;50963;-62
2021/11/04 03:42:48;;;;;;;;;20.50;20.50;;;;;-147.17;100.00;50007.41;5073515;28;51863;-62
2021/11/04 03:45:15;;;;;;;;;20.25;18.75;;;;;-147.17;100.00;50013.31;5070293;28;51167;-62
2021/11/04 03:47:42;;;;;;;;;18.25;18.00;;;;;-147.17;100.00;50013.31;5071238;28;51124;-62
2021/11/04 03:50:10;;;;;;;;;20.50;19.75;;;;;-147.17;100.00;50025.13;5068893;28;51002;-62
2021/11/04 03:52:40;;;;;;;;;19.75;18.25;;;;;-147.17;100.00;50019.22;5073608;28;52214;-62
2021/11/04 03:55:07;;;;;;;;;20.25;19.00;;;;;-147.17;100.00;50019.22;5071307;28;51184;-66
2021/11/04 03:57:32;;;;;;;;;17.25;15.50;;;;;-147.17;100.00;50021.19;5063655;28;51130;-62
2021/11/04 03:59:58;;;;;;;;;19.25;18.25;;;;;-147.17;100.00;50013.31;5069982;28;51144;-62
2021/11/04 04:02:24;;;;;;;;;16.75;16.00;;;;;-147.17;100.00;50017.25;5070925;28;51963;-62
2021/11/04 04:04:55;;;;;;;;;20.75;18.75;;;;;-147.17;100.00;49981.81;5071659;28;53219;-62
2021/11/04 04:07:24;;;;;;;;;16.00;15.50;;;;;-147.17;100.00;50007.41;5073646;28;51096;-61
2021/11/04 04:09:50;;;;;;;;;19.50;18.25;;;;;-147.17;100.00;50005.44;5062912;27;51197;-62
2021/11/04 04:12:16;;;;;;;;;17.00;16.25;;;;;-147.17;100.00;49973.94;5052776;28;51666;-61
2021/11/04 04:14:41;;;;;;;;;19.50;18.25;;;;;-147.17;100.00;49993.63;5071608;28;51078;-61
2021/11/04 04:17:06;;;;;;;;;20.00;19.75;;;;;-147.17;100.00;49981.81;5064234;28;51370;-61
2021/11/04 04:19:32;;;;;;;;;20.50;19.25;;;;;-147.17;100.00;49993.63;5067670;28;50998;-61
2021/11/04 04:21:57;;;;;;;;;23.50;19.25;;;;;-147.17;100.00;50001.50;5071991;28;51772;-61
2021/11/04 04:24:22;;;;;;;;;19.75;19.00;;;;;-147.17;100.00;50009.38;5072023;28;50964;-62
2021/11/04 04:26:48;;;;;;;;;22.00;18.75;;;;;-147.17;100.00;49993.63;5071527;28;50891;-62
2021/11/04 04:29:13;;;;;;;;;21.25;19.25;;;;;-147.17;100.00;50001.50;5073429;28;51372;-61
2021/11/04 04:31:38;;;;;;;;;22.00;20.00;;;;;-147.17;100.00;49985.75;5072987;28;52001;-62
2021/11/04 04:34:04;;;;;;;;;20.00;19.50;;;;;-147.17;100.00;49964.09;5065445;28;51172;-60
2021/11/04 04:36:29;;;;;;;;;14.50;14.25;;;;;-147.17;100.00;49973.94;5068106;28;52652;-63
2021/11/04 04:38:54;;;;;;;;;19.50;17.00;;;;;-147.17;100.00;49997.56;5047154;28;51255;-62
2021/11/04 04:41:20;;;;;;;;;17.25;16.75;;;;;-147.17;100.00;49954.25;5073031;28;52172;-61
2021/11/04 04:43:46;;;;;;;;;21.50;19.00;;;;;-147.17;100.00;49952.28;5054974;28;51097;-62
2021/11/04 04:46:11;;;;;;;;;19.00;16.25;;;;;-147.17;100.00;49926.69;5071837;28;51698;-61
2021/11/04 04:48:37;;;;;;;;;15.00;14.25;;;;;-147.17;100.00;49962.13;5064351;28;51177;-62
2021/11/04 04:51:02;;;;;;;;;16.25;16.00;;;;;-147.17;100.00;49934.56;5072773;28;51860;-61
2021/11/04 04:53:28;;;;;;;;;18.50;18.50;;;;;-147.17;100.00;49936.53;5072538;28;51085;-62
2021/11/04 04:55:53;;;;;;;;;19.25;17.50;;;;;-147.17;100.00;49954.25;5052001;28;51319;-63
2021/11/04 04:58:18;;;;;;;;;17.50;16.00;;;;;-147.17;100.00;49934.56;5060525;28;51272;-62
2021/11/04 05:00:44;;;;;;;;;21.00;21.00;;;;;-147.17;100.00;49932.59;5070307;28;51093;-63
2021/11/04 05:03:09;;;;;;;;;18.25;18.25;;;;;-147.17;100.00;49924.72;5062957;28;51193;-62
2021/11/04 05:05:35;;;;;;;;;17.50;16.00;;;;;-147.17;100.00;49948.34;5072583;28;51023;-62
2021/11/04 05:08:00;;;;;;;;;19.25;19.00;;;;;-147.17;100.00;49877.50;5071880;28;51003;-62
2021/11/04 05:10:25;;;;;;;;;19.25;18.00;;;;;-147.17;100.00;49889.31;5057561;28;51528;-61
2021/11/04 05:12:51;;;;;;;;;20.25;19.75;;;;;-147.17;100.00;49922.78;5072059;28;51236;-62
2021/11/04 05:15:16;;;;;;;;;17.00;16.25;;;;;-147.17;100.00;49887.34;5071399;28;50861;-63
2021/11/04 05:17:43;;;;;;;;;20.25;20.25;;;;;-147.17;100.00;49918.84;5058896;28;51209;-62
2021/11/04 05:20:09;;;;;;;;;20.75;20.00;;;;;-147.17;100.00;49928.66;5071696;28;52023;-62
2021/11/04 05:22:36;;;;;;;;;20.00;20.00;;;;;-147.17;100.00;49881.44;5071727;28;51161;-62
2021/11/04 05:25:02;;;;;;;;;19.25;19.00;;;;;-147.17;100.00;49914.91;5072440;28;51030;-62
2021/11/04 05:27:29;;;;;;;;;22.25;19.50;;;;;-147.17;100.00;49891.28;5072234;28;51124;-61
2021/11/04 05:29:55;;;;;;;;;16.00;16.00;;;;;-147.17;100.00;49930.63;5071267;28;51112;-65
2021/11/04 05:32:22;;;;;;;;;17.50;16.50;;;;;-147.17;100.00;49910.97;5052216;28;51232;-63
2021/11/04 05:34:47;;;;;;;;;23.25;22.50;;;;;-147.17;100.00;49918.84;5070280;28;51282;-61
2021/11/04 05:37:13;;;;;;;;;17.00;17.00;;;;;-147.17;100.00;49899.16;5071254;28;51225;-63
2021/11/04 05:39:39;;;;;;;;;19.00;18.25;;;;;-147.17;100.00;49893.25;5071605;28;51605;-62
2021/11/04 05:42:06;;;;;;;;;18.50;18.25;;;;;-147.17;100.00;49893.25;5071668;28;51149;-62
2021/11/04 05:44:32;;;;;;;;;22.00;20.50;;;;;-147.17;100.00;49928.66;5037573;28;51247;-62
2021/11/04 05:46:58;;;;;;;;;18.50;17.75;;;;;-147.17;100.00;49914.91;5058791;27;51375;-62
2021/11/04 05:49:23;;;;;;;;;19.50;19.00;;;;;-147.17;100.00;49891.28;5070357;28;51850;-61
2021/11/04 05:51:49;;;;;;;;;19.75;17.50;;;;;-147.17;100.00;49918.84;5071913;28;51165;-61
2021/11/04 05:54:14;;;;;;;;;19.25;18.25;;;;;-147.17;100.00;49869.63;5071001;28;51053;-61
2021/11/04 05:56:40;;;;;;;;;21.50;20.00;;;;;-147.17;100.00;49871.59;5072200;28;51325;-62
2021/11/04 05:59:05;;;;;;;;;13.75;13.00;;;;;-147.17;100.00;49916.88;5071908;28;52234;-61
2021/11/04 06:01:31;;;;;;;;;21.75;20.75;;;;;-147.17;100.00;49889.31;5070390;28;51994;-61
2021/11/04 06:03:56;;;;;;;;;16.00;16.00;;;;;-147.17;100.00;49883.41;5070789;28;51014;-61
2021/11/04 06:06:22;;;;;;;;;22.00;21.00;;;;;-147.17;100.00;49899.16;5061873;28;51391;-61
2021/11/04 06:08:48;;;;;;;;;20.75;19.75;;;;;-147.17;100.00;49863.72;5068461;28;51202;-61
2021/11/04 06:11:13;;;;;;;;;21.00;18.75;;;;;-147.17;100.00;49887.34;5041855;28;50956;-61
2021/11/04 06:13:39;;;;;;;;;20.25;20.25;;;;;-147.17;100.00;49873.56;5071843;28;51105;-63
2021/11/04 06:16:04;;;;;;;;;22.75;20.75;;;;;-147.17;100.00;49909.00;5052760;28;51205;-63
2021/11/04 06:18:30;;;;;;;;;19.50;18.25;;;;;-147.17;100.00;49855.84;5071932;28;51929;-62
2021/11/04 06:20:55;;;;;;;;;19.25;19.00;;;;;-147.17;100.00;49865.69;5071831;28;51215;-62
2021/11/04 06:23:20;;;;;;;;;16.50;16.50;;;;;-147.17;100.00;49912.94;5071588;28;51068;-63
2021/11/04 06:25:46;;;;;;;;;18.25;16.75;;;;;-147.17;100.00;49893.25;5069743;28;51241;-61
2021/11/04 06:28:11;;;;;;;;;17.00;15.50;;;;;-147.17;100.00;49861.75;5061658;28;51422;-62
2021/11/04 06:30:36;;;;;;;;;21.00;19.00;;;;;-147.17;100.00;49897.19;5069458;28;52681;-61
2021/11/04 06:33:02;;;;;;;;;20.00;18.75;;;;;-147.17;100.00;49926.69;5071733;28;51169;-61
2021/11/04 06:35:28;;;;;;;;;18.25;15.75;;;;;-147.17;100.00;49861.75;5062837;28;51300;-62
2021/11/04 06:37:53;;;;;;;;;22.00;20.75;;;;;-147.17;100.00;49883.41;5075253;28;51019;-62
2021/11/04 06:40:24;;;;;;;;;17.25;16.75;;;;;-147.17;100.00;49891.28;5074458;28;50988;-62
2021/11/04 06:42:49;;;;;;;;;16.25;15.75;;;;;-147.17;100.00;49847.97;5074992;28;51288;-62
2021/11/04 06:45:15;;;;;;;;;15.75;14.25;;;;;-147.17;100.00;49881.44;5072143;28;51080;-61
2021/11/04 06:47:52;;;;;;;;;19.50;17.00;;;;;-147.17;100.00;49838.13;5052204;28;52437;-62
2021/11/04 06:50:24;;;;;;;;;21.75;20.50;;;;;-147.17;100.00;49867.66;5065395;28;51103;-61
2021/11/04 06:53:06;;;;;;;;;22.75;21.25;;;;;-147.17;100.00;49879.47;5073127;27;51080;-62
2021/11/04 06:55:34;;;;;;;;;14.25;14.00;;;;;-147.17;100.00;49877.50;5064288;28;51372;-61
2021/11/04 06:58:01;;;;;;;;;25.75;23.00;;;;;-147.17;100.00;49891.28;5068672;28;52034;-62
2021/11/04 07:00:30;;;;;;;;;15.25;12.25;;;;;-147.17;100.00;49899.16;5051488;28;52901;-62
2021/11/04 07:02:59;;;;;;;;;17.25;15.50;;;;;-147.17;100.00;49875.53;5037541;28;51085;-62
2021/11/04 07:05:25;;;;;;;;;14.25;13.75;;;;;-147.17;100.00;49871.59;5071987;27;51521;-61
2021/11/04 07:07:53;;;;;;;;;18.50;15.75;;;;;-147.17;100.00;49869.63;5073596;28;51910;-62
2021/11/04 07:10:22;;;;;;;;;14.00;11.50;;;;;-147.17;100.00;49875.53;5070271;27;51157;-62
2021/11/04 07:12:49;;;;;;;;;12.75;11.75;;;;;-147.17;100.00;49851.91;5054726;28;51125;-62
2021/11/04 07:15:17;;;;;;;;;9.75;9.75;;;;;-147.17;100.00;49847.97;5071763;28;51014;-62
2021/11/04 07:17:44;;;;;;;;;13.50;11.75;;;;;-147.17;100.00;49905.06;5072776;28;51276;-62
2021/11/04 07:20:11;;;;;;;;;11.50;10.00;;;;;-147.17;100.00;49901.13;5055831;28;51194;-63
2021/11/04 07:22:48;;;;;;;;;11.25;11.25;;;;;-147.17;100.00;49861.75;5063479;28;51278;-64
2021/11/04 07:25:16;;;;;;;;;14.00;13.25;;;;;-147.17;100.00;49891.28;5068004;28;51129;-61
2021/11/04 07:27:53;;;;;;;;;11.50;11.00;;;;;-147.17;100.00;49863.72;5064240;28;52498;-63
2021/11/04 07:30:21;;;;;;;;;13.50;11.25;;;;;-147.17;100.00;49875.53;5065794;28;51194;-63
2021/11/04 07:32:56;;;;;;;;;11.50;11.00;;;;;-147.17;100.00;49847.97;5073394;28;51190;-63
2021/11/04 07:35:30;;;;;;;;;13.50;12.25;;;;;-147.17;100.00;49853.88;5073046;28;51010;-63
2021/11/04 07:37:56;;;;;;;;;11.00;10.00;;;;;-147.17;100.00;49851.91;5071929;28;51890;-64
2021/11/04 07:40:24;;;;;;;;;14.00;13.00;;;;;-147.17;100.00;49871.59;5067358;28;50971;-65
2021/11/04 07:42:50;;;;;;;;;12.00;10.25;;;;;-147.17;100.00;49865.69;5072349;28;51495;-68
2021/11/04 07:45:16;;;;;;;;;13.00;10.50;;;;;-147.17;100.00;49855.84;5054032;28;51322;-69
2021/11/04 07:47:44;;;;;;;;;14.75;13.25;;;;;-147.17;100.00;49903.09;5072631;28;51130;-64
2021/11/04 07:50:12;;;;;;;;;12.75;10.00;;;;;-147.17;100.00;49879.47;5068351;28;51029;-64
2021/11/04 07:52:39;;;;;;;;;8.00;7.50;;;;;-147.17;100.00;49861.75;5066433;28;51329;-65
2021/11/04 07:55:06;;;;;;;;;14.00;12.75;;;;;-147.17;100.00;49853.88;5070790;28;51229;-64
2021/11/04 07:57:33;;;;;;;;;10.25;10.25;;;;;-147.17;100.00;49875.53;5058923;28;52281;-63
2021/11/04 08:00:04;;;;;;;;;13.25;12.00;;;;;-147.17;100.00;49891.28;5050852;28;51102;-63
2021/11/04 08:02:29;;;;;;;;;10.75;10.75;;;;;-147.17;100.00;49875.53;5065617;28;51095;-62
2021/11/04 08:04:55;;;;;;;;;14.25;11.00;;;;;-147.17;100.00;49867.66;5055498;28;51409;-62
2021/11/04 08:07:20;;;;;;;;;10.75;10.75;;;;;-147.17;100.00;49871.59;5069740;28;51621;-63
2021/11/04 08:09:45;;;;;;;;;11.00;10.00;;;;;-147.17;100.00;49903.09;5069805;28;51309;-62
2021/11/04 08:12:11;;;;;;;;;14.00;11.50;;;;;-147.17;100.00;49883.41;5062831;28;51095;-64
2021/11/04 08:14:37;;;;;;;;;9.00;8.25;;;;;-147.17;100.00;49877.50;5071493;28;52068;-63
2021/11/04 08:17:02;;;;;;;;;9.75;9.75;;;;;-147.17;100.00;49897.19;5054007;28;51824;-64
2021/11/04 08:19:28;;;;;;;;;11.75;11.25;;;;;-147.17;100.00;49875.53;5070248;28;51030;-65
2021/11/04 08:21:53;;;;;;;;;9.25;8.75;;;;;-147.17;100.00;49873.56;5059371;28;51042;-64
2021/11/04 08:24:19;;;;;;;;;9.00;8.25;;;;;-147.17;100.00;49883.41;5070722;28;51448;-62
2021/11/04 08:26:44;;;;;;;;;10.50;10.50;;;;;-147.17;100.00;49899.16;5071334;28;52216;-63
2021/11/04 08:29:09;;;;;;;;;8.75;8.00;;;;;-147.17;100.00;49924.72;5068971;28;50922;-67
2021/11/04 08:31:35;;;;;;;;;9.00;9.00;;;;;-147.17;100.00;49879.47;5070189;28;51137;-63
2021/11/04 08:34:01;;;;;;;;;9.00;8.75;;;;;-147.17;100.00;49899.16;5051790;28;51431;-63
2021/11/04 08:36:26;;;;;;;;;8.50;8.25;;;;;-147.17;100.00;49934.56;5072796;28;52265;-62
2021/11/04 08:38:52;;;;;;;;;6.67;5.00;;;;;-147.17;100.00;49914.91;5071604;28;51034;-62
2021/11/04 08:41:18;;;;;;;;;8.00;8.00;;;;;-147.17;100.00;49918.84;5063165;27;51405;-62
2021/11/04 08:43:43;;;;;;;;;9.33;8.67;;;;;-147.17;100.00;49922.78;5046274;28;51309;-62
2021/11/04 08:46:09;;;;;;;;;8.67;8.67;;;;;-147.17;100.00;49875.53;5042540;28;52880;-64
2021/11/04 08:48:35;;;;;;;;;6.00;6.00;;;;;-147.17;100.00;49922.78;5071812;28;51207;-62
2021/11/04 08:51:02;;;;;;;;;8.00;8.00;;;;;-147.17;100.00;49930.63;5070424;28;51199;-63
2021/11/04 08:53:27;;;;;;;;;5.33;5.00;;;;;-147.17;100.00;49910.97;5062869;28;51215;-62
2021/11/04 08:55:53;;;;;;;;;4.67;4.67;;;;;-147.17;100.00;49922.78;5065658;28;51967;-63
2021/11/04 08:58:18;;;;;;;;;9.33;9.00;;;;;-147.17;100.00;49907.03;5060797;28;51160;-64
2021/11/04 09:00:44;;;;;;;;;6.00;5.33;;;;;-147.17;100.00;49914.91;5065380;28;51200;-64
2021/11/04 09:03:11;;;;;;;;;7.00;5.33;;;;;-147.17;100.00;49891.28;5063799;28;51228;-64
2021/11/04 09:05:39;;;;;;;;;6.00;6.00;;;;;-147.17;100.00;49871.59;5049262;28;53809;-64
2021/11/04 09:08:06;;;;;;;;;5.00;5.00;;;;;-147.17;100.00;49932.59;5053006;28;51121;-63
2021/11/04 09:10:31;;;;;;;;;13.75;13.00;;;;;-147.17;100.00;49926.69;5063860;28;51173;-63
2021/11/04 09:12:57;;;;;;;;;5.00;5.00;;;;;-147.17;100.00;49997.56;5044591;28;51207;-63
2021/11/04 09:15:23;;;;;;;;;5.67;5.67;;;;;-147.17;100.00;49966.06;5049399;28;51205;-63
2021/11/04 09:17:48;;;;;;;;;9.25;9.00;;;;;-147.17;100.00;49940.47;5061368;28;51111;-63
2021/11/04 09:20:16;;;;;;;;;6.33;5.33;;;;;-147.17;100.00;49928.66;5038145;28;51029;-63
2021/11/04 09:22:45;;;;;;;;;6.00;6.00;;;;;-147.17;100.00;49954.25;5064328;27;51228;-63
2021/11/04 09:25:10;;;;;;;;;8.33;7.00;;;;;-147.17;100.00;49966.06;5060613;28;52166;-63
2021/11/04 09:27:36;;;;;;;;;7.00;7.00;;;;;-147.17;100.00;49989.69;5063419;28;51242;-63
2021/11/04 09:30:03;;;;;;;;;4.67;4.67;;;;;-147.17;100.00;49989.69;5056807;28;51212;-63
2021/11/04 09:32:28;;;;;;;;;6.00;5.33;;;;;-147.17;100.00;49964.09;5052069;28;51418;-63
2021/11/04 09:34:53;;;;;;;;;8.00;7.67;;;;;-147.17;100.00;49958.19;5048139;28;54065;-63
2021/11/04 09:37:19;;;;;;;;;6.00;6.00;;;;;-147.17;100.00;49956.22;5058121;28;50967;-63
2021/11/04 09:39:48;;;;;;;;;6.33;5.00;;;;;-147.17;100.00;49970.00;5064731;28;50912;-63
2021/11/04 09:42:16;;;;;;;;;6.00;6.00;;;;;-147.17;100.00;49948.34;5069584;28;51219;-64
2021/11/04 09:44:44;;;;;;;;;11.00;8.67;;;;;-147.17;100.00;49962.13;5068828;28;52087;-63
2021/11/04 09:47:10;;;;;;;;;5.00;5.00;;;;;-147.17;100.00;49968.03;5070087;28;50807;-64
2021/11/04 09:49:35;;;;;;;;;7.33;6.00;;;;;-147.17;100.00;49942.44;5070458;28;51121;-64
2021/11/04 09:52:01;;;;;;;;;7.00;5.00;;;;;-147.17;100.00;49952.28;5067380;28;51042;-65
2021/11/04 09:54:26;;;;;;;;;5.67;4.33;;;;;-147.17;100.00;49934.56;5064589;28;51854;-64
2021/11/04 09:56:52;;;;;;;;;7.00;6.33;;;;;-147.17;100.00;49918.84;5050374;28;51328;-63
2021/11/04 09:59:17;;;;;;;;;4.00;4.00;;;;;-147.17;100.00;49977.88;5068548;28;51331;-64
2021/11/04 10:01:47;;;;;;;;;4.67;4.67;;;;;-147.17;100.00;49991.66;5068951;28;51236;-63
2021/11/04 10:04:13;;;;;;;;;6.33;5.67;;;;;-147.17;100.00;50013.31;5067613;28;51972;-63
2021/11/04 10:06:40;;;;;;;;;5.00;5.00;;;;;-147.17;100.00;50025.13;5049469;28;51141;-63
2021/11/04 10:09:11;;;;;;;;;5.00;4.33;;;;;-147.17;100.00;49989.69;5063546;28;51005;-64
2021/11/04 10:11:44;;;;;;;;;5.00;5.00;;;;;-147.17;100.00;49977.88;5063481;28;51130;-62
2021/11/04 10:14:12;;;;;;;;;3.33;3.33;;;;;-147.17;100.00;49993.63;5072416;28;51347;-65
2021/11/04 10:16:40;;;;;;;;;3.33;3.33;;;;;-147.17;100.00;49997.56;5055981;28;51334;-64
2021/11/04 10:19:11;;;;;;;;;4.00;4.00;;;;;-147.17;100.00;49983.78;5046244;28;51158;-62
2021/11/04 10:21:41;;;;;;;;;7.00;7.00;;;;;-147.17;100.00;49942.44;5074231;28;51252;-65
2021/11/04 10:24:19;;;;;;;;;11.67;11.33;;;;;-147.17;100.00;49891.28;5073706;28;51385;-63
2021/11/04 10:26:45;;;;;;;;;7.33;6.67;;;;;-147.17;100.00;49934.56;5073215;28;51248;-63
2021/11/04 10:29:14;;;;;;;;;4.00;4.00;;;;;-147.17;100.00;49968.03;5068486;28;51145;-64
2021/11/04 10:31:44;;;;;;;;;6.00;6.00;;;;;-147.17;100.00;50013.31;5055773;28;51343;-64
2021/11/04 10:34:27;;;;;;;;;5.00;4.00;;;;;-147.17;100.00;49960.16;5071979;28;51177;-64
2021/11/04 10:36:54;;;;;;;;;5.00;5.00;;;;;-147.17;100.00;49926.69;5068121;28;51148;-64
2021/11/04 10:39:27;;;;;;;;;3.67;3.00;;;;;-147.17;100.00;49981.81;5047073;28;51169;-64
2021/11/04 10:41:56;;;;;;;;;5.67;5.00;;;;;-147.17;100.00;49977.88;5055298;28;52671;-63
2021/11/04 10:44:22;;;;;;;;;4.67;4.33;;;;;-147.17;100.00;50088.13;5053791;28;52061;-63
2021/11/04 10:46:50;;;;;;;;;4.33;3.67;;;;;-147.17;100.00;50174.72;5074109;28;51186;-63
2021/11/04 10:49:18;;;;;;;;;3.00;3.00;;;;;-147.17;100.00;50223.94;5074241;28;51388;-64
2021/11/04 10:51:44;;;;;;;;;3.00;3.00;;;;;-147.17;100.00;50271.19;5074332;28;51093;-64
2021/11/04 10:54:16;;;;;;;;;5.00;5.00;;;;;-147.17;100.00;50194.41;5070007;27;50979;-65
2021/11/04 10:56:43;;;;;;;;;8.00;7.00;;;;;-147.17;100.00;50080.25;5069819;28;51365;-64